Spottswood, Virginia
Current Conditions -  °F | °C
As of 9:15 AM on Saturday 22 Nov 2014 (Local Time) from KW13 Reporting Station
Clear Clear  
Wind Chill: 32°   Ceiling: Unl
Heat Index: 32°   Visibility: 10mi
Dew Point: 14°   Wind: 0mph
Humidity: 48%   Direction: NA
Pressure: 30.42"   Gusts: NA
Location:  37.95°N, 79.21°W
Report Text: KW13 221415Z AUTO 00000KT 10SM CLR 00/M10 A3042 RMK AO1 T00001099
Loading
Personal Weather Stations






























Interactive Weather Map New forecast layout! Learn more

10-Day Weather Forecast

Advertisements
Track Severe Weather on mobile